createdAt,value
2024-04-14T00:00:47.735Z,141.85
2024-04-14T00:01:47.842Z,139.42
2024-04-14T00:02:47.961Z,143.40
2024-04-14T00:03:48.108Z,145.12
2024-04-14T00:04:48.283Z,143.38
2024-04-14T00:05:48.281Z,143.59
2024-04-14T00:06:48.441Z,146.70
2024-04-14T00:07:48.504Z,145.58
2024-04-14T00:08:48.598Z,145.02
2024-04-14T00:09:48.750Z,144.54
2024-04-14T00:10:48.806Z,144.52
2024-04-14T00:11:48.930Z,145.79
2024-04-14T00:12:49.021Z,142.84
2024-04-14T00:13:49.105Z,140.68
2024-04-14T00:14:49.211Z,142.82
2024-04-14T00:15:49.380Z,141.21
2024-04-14T00:16:49.431Z,142.59
2024-04-14T00:17:49.635Z,143.76
2024-04-14T00:18:49.811Z,144.20
2024-04-14T00:19:49.753Z,143.68
2024-04-14T00:20:49.829Z,143.61
2024-04-14T00:21:50.033Z,146.31
2024-04-14T00:22:50.048Z,145.37
2024-04-14T00:23:50.169Z,145.77
2024-04-14T00:24:50.284Z,144.46
2024-04-14T00:25:50.382Z,144.08
2024-04-14T00:26:50.483Z,144.77
2024-04-14T00:27:50.612Z,143.85
2024-04-14T00:28:50.716Z,143.23
2024-04-14T00:29:50.817Z,142.07
2024-04-14T00:30:50.946Z,143.44
2024-04-14T00:31:51.005Z,142.89
2024-04-14T00:32:51.249Z,145.39
2024-04-14T00:33:51.264Z,144.29
2024-04-14T00:34:51.298Z,145.49
2024-04-14T00:35:51.412Z,143.84
2024-04-14T00:36:51.594Z,143.46
2024-04-14T00:37:51.617Z,144.10
2024-04-14T00:38:51.775Z,142.00
2024-04-14T00:39:51.879Z,141.74
2024-04-14T00:40:51.919Z,143.12
2024-04-14T00:41:52.028Z,143.48
2024-04-14T00:42:52.376Z,142.09
2024-04-14T00:43:52.246Z,140.95
2024-04-14T00:44:52.388Z,141.89
2024-04-14T00:45:52.510Z,140.46
2024-04-14T00:46:52.526Z,141.32
2024-04-14T00:47:52.716Z,140.19
2024-04-14T00:48:52.943Z,140.05
2024-04-14T00:49:52.867Z,138.78
2024-04-14T00:50:53.005Z,139.11
2024-04-14T00:51:53.163Z,137.35
2024-04-14T00:52:53.199Z,137.98
2024-04-14T00:53:53.325Z,138.91
2024-04-14T00:54:53.627Z,138.50
2024-04-14T00:55:53.499Z,138.56
2024-04-14T00:56:53.645Z,138.77
2024-04-14T00:57:53.916Z,138.69
2024-04-14T00:58:53.834Z,136.92
2024-04-14T00:59:53.951Z,138.73
2024-04-14T01:00:54.141Z,137.94
2024-04-14T01:01:54.191Z,138.38
2024-04-14T01:02:54.298Z,137.30
2024-04-14T01:03:54.439Z,139.64
2024-04-14T01:04:54.648Z,139.18
2024-04-14T01:05:54.577Z,138.72
2024-04-14T01:06:54.849Z,137.20
2024-04-14T01:07:54.816Z,137.76
2024-04-14T01:08:54.918Z,140.33
2024-04-14T01:09:55.064Z,139.41
2024-04-14T01:10:55.169Z,140.23
2024-04-14T01:11:55.222Z,139.43
2024-04-14T01:12:55.455Z,140.13
2024-04-14T01:13:55.463Z,142.16
2024-04-14T01:14:55.563Z,139.64
2024-04-14T01:15:55.762Z,139.68
2024-04-14T01:16:55.772Z,139.30
2024-04-14T01:17:55.965Z,140.65
2024-04-14T01:18:57.213Z,138.39
2024-04-14T01:19:56.072Z,141.74
2024-04-14T01:20:56.177Z,138.15
2024-04-14T01:21:56.344Z,139.90
2024-04-14T01:22:56.436Z,139.12
2024-04-14T01:23:56.523Z,139.66
2024-04-14T01:24:57.836Z,137.88
2024-04-14T01:25:56.710Z,138.25
2024-04-14T01:26:56.823Z,136.34
2024-04-14T01:27:57.022Z,136.98
2024-04-14T01:28:57.057Z,135.90
2024-04-14T01:29:57.185Z,132.95
2024-04-14T01:30:57.378Z,134.02
2024-04-14T01:31:57.386Z,132.04
2024-04-14T01:32:57.569Z,130.47
2024-04-14T01:33:57.684Z,129.86
2024-04-14T01:34:57.735Z,128.63
2024-04-14T01:35:57.843Z,131.25
2024-04-14T01:36:57.983Z,127.79
2024-04-14T01:38:08.633Z,126.63
2024-04-14T01:38:59.043Z,126.73
2024-04-14T01:39:58.111Z,126.79
2024-04-14T01:40:58.057Z,127.31
2024-04-14T01:41:58.055Z,127.17
2024-04-14T01:42:58.121Z,125.89
2024-04-14T01:43:58.064Z,126.62
2024-04-14T01:44:58.044Z,127.54
2024-04-14T01:45:58.091Z,124.15
2024-04-14T01:46:58.054Z,126.37
2024-04-14T01:47:58.102Z,126.79
2024-04-14T01:48:58.192Z,126.70
2024-04-14T01:49:58.068Z,125.70
2024-04-14T01:50:58.058Z,125.69
2024-04-14T01:51:58.154Z,126.63
2024-04-14T01:52:58.185Z,125.35
2024-04-14T01:53:58.262Z,125.41
2024-04-14T01:54:58.413Z,125.72
2024-04-14T01:55:58.469Z,126.56
2024-04-14T01:56:58.571Z,125.79
2024-04-14T01:57:58.751Z,124.43
2024-04-14T01:58:58.806Z,125.59
2024-04-14T01:59:58.902Z,124.47
2024-04-14T02:00:59.110Z,124.85
2024-04-14T02:01:59.115Z,126.32
2024-04-14T02:02:59.298Z,124.67
2024-04-14T02:03:59.473Z,125.41
2024-04-14T02:04:59.406Z,125.99
2024-04-14T02:05:59.515Z,126.01
2024-04-14T02:06:59.655Z,125.40
2024-04-14T02:07:59.752Z,124.59
2024-04-14T02:08:59.851Z,123.79
2024-04-14T02:09:59.965Z,123.20
2024-04-14T02:11:00.109Z,121.64
2024-04-14T02:12:00.167Z,120.42
2024-04-14T02:13:00.357Z,121.64
2024-04-14T02:14:00.361Z,120.11
2024-04-14T02:15:00.479Z,120.65
2024-04-14T02:16:00.658Z,120.17
2024-04-14T02:17:00.660Z,118.07
2024-04-14T02:18:00.875Z,118.85
2024-04-14T02:19:00.914Z,117.55
2024-04-14T02:20:00.947Z,119.00
2024-04-14T02:21:01.043Z,116.80
2024-04-14T02:22:01.238Z,113.52
2024-04-14T02:23:01.314Z,114.61
2024-04-14T02:24:01.394Z,113.91
2024-04-14T02:25:01.618Z,114.40
2024-04-14T02:26:01.575Z,113.35
2024-04-14T02:27:01.701Z,113.85
2024-04-14T02:28:01.937Z,112.83
2024-04-14T02:29:01.899Z,112.95
2024-04-14T02:30:01.972Z,112.68
2024-04-14T02:31:02.109Z,111.81
2024-04-14T02:32:02.195Z,113.17
2024-04-14T02:33:02.504Z,112.36
2024-04-14T02:34:02.474Z,112.04
2024-04-14T02:35:02.534Z,112.60
2024-04-14T02:36:02.607Z,110.98
2024-04-14T02:37:02.756Z,109.70
2024-04-14T02:38:02.819Z,110.55
2024-04-14T02:39:02.896Z,109.03
2024-04-14T02:40:03.047Z,107.03
2024-04-14T02:41:03.099Z,107.47
2024-04-14T02:42:03.172Z,105.94
2024-04-14T02:43:03.401Z,106.46
2024-04-14T02:44:03.398Z,106.79
2024-04-14T02:45:03.501Z,108.10
2024-04-14T02:46:03.674Z,107.27
2024-04-14T02:47:03.674Z,104.35
2024-04-14T02:48:03.891Z,103.35
2024-04-14T02:49:03.983Z,105.21
2024-04-14T02:50:03.975Z,107.06
2024-04-14T02:51:04.058Z,103.98
2024-04-14T02:52:04.231Z,101.65
2024-04-14T02:53:04.280Z,103.55
2024-04-14T02:54:04.323Z,100.57
2024-04-14T02:55:04.501Z,100.44
2024-04-14T02:56:04.529Z,98.27
2024-04-14T02:57:04.590Z,99.76
2024-04-14T02:58:04.729Z,99.33
2024-04-14T02:59:04.790Z,98.44
2024-04-14T03:00:04.918Z,98.60
2024-04-14T03:01:05.359Z,95.50
2024-04-14T03:02:05.086Z,96.02
2024-04-14T03:03:05.284Z,94.24
2024-04-14T03:04:05.340Z,95.22
2024-04-14T03:05:05.426Z,92.31
2024-04-14T03:06:05.473Z,93.49
2024-04-14T03:07:05.565Z,95.69
2024-04-14T03:08:05.686Z,93.81
2024-04-14T03:09:05.764Z,94.03
2024-04-14T03:10:05.864Z,93.70
2024-04-14T03:11:05.949Z,94.34
2024-04-14T03:12:06.070Z,92.97
2024-04-14T03:13:06.201Z,93.46
2024-04-14T03:14:06.267Z,91.80
2024-04-14T03:15:06.344Z,91.42
2024-04-14T03:16:06.625Z,89.11
2024-04-14T03:17:06.554Z,90.12
2024-04-14T03:18:06.686Z,89.99
2024-04-14T03:19:06.785Z,89.02
2024-04-14T03:20:06.852Z,86.51
2024-04-14T03:21:06.935Z,88.67
2024-04-14T03:22:07.057Z,88.64
2024-04-14T03:23:07.077Z,87.11
2024-04-14T03:24:07.199Z,89.30
2024-04-14T03:25:07.319Z,86.87
2024-04-14T03:26:07.375Z,85.62
2024-04-14T03:27:07.475Z,87.77
2024-04-14T03:28:10.658Z,84.37
2024-04-14T03:29:07.572Z,84.92
2024-04-14T03:30:07.582Z,85.42
2024-04-14T03:31:07.727Z,83.29
2024-04-14T03:32:07.590Z,85.19
2024-04-14T03:33:07.645Z,82.49
2024-04-14T03:34:07.633Z,83.60
2024-04-14T03:35:07.598Z,82.39
2024-04-14T03:36:07.580Z,83.45
2024-04-14T03:37:07.611Z,85.37
2024-04-14T03:38:07.574Z,84.36
2024-04-14T03:39:07.589Z,83.11
2024-04-14T03:40:07.648Z,82.44
2024-04-14T03:41:07.603Z,82.33
2024-04-14T03:42:07.583Z,81.34
2024-04-14T03:43:07.626Z,80.04
2024-04-14T03:44:07.574Z,80.41
2024-04-14T03:45:07.649Z,80.91
2024-04-14T03:46:07.604Z,78.01
2024-04-14T03:47:07.607Z,78.40
2024-04-14T03:48:07.671Z,77.19
2024-04-14T03:49:07.693Z,76.82
2024-04-14T03:50:08.325Z,75.92
2024-04-14T03:51:07.615Z,75.19
2024-04-14T03:52:07.621Z,75.97
2024-04-14T03:53:07.649Z,74.18
2024-04-14T03:54:07.636Z,73.62
2024-04-14T03:55:07.622Z,78.45
2024-04-14T03:56:07.608Z,78.60
2024-04-14T03:57:07.615Z,76.68
2024-04-14T03:58:07.631Z,79.35
2024-04-14T03:59:07.677Z,77.38
2024-04-14T04:00:07.763Z,75.82
2024-04-14T04:01:07.939Z,80.48
2024-04-14T04:02:08.017Z,76.16
2024-04-14T04:03:08.051Z,77.68
2024-04-14T04:04:08.191Z,78.78
2024-04-14T04:05:08.164Z,80.63
2024-04-14T04:06:08.296Z,78.82
2024-04-14T04:07:08.313Z,79.39
2024-04-14T04:08:08.768Z,77.13
2024-04-14T04:09:08.472Z,76.74
2024-04-14T04:10:08.544Z,75.16
2024-04-14T04:11:08.667Z,80.01
2024-04-14T04:12:08.706Z,77.24
2024-04-14T04:13:08.801Z,77.86
2024-04-14T04:14:08.863Z,75.74
2024-04-14T04:15:08.960Z,79.42
2024-04-14T04:16:09.023Z,78.59
2024-04-14T04:17:09.140Z,75.65
2024-04-14T04:18:09.200Z,78.06
2024-04-14T04:19:18.327Z,79.74
2024-04-14T04:20:10.216Z,79.32
2024-04-14T04:21:09.217Z,77.25
2024-04-14T04:22:09.192Z,78.37
2024-04-14T04:23:09.191Z,78.54
2024-04-14T04:24:09.188Z,82.87
2024-04-14T04:25:09.272Z,78.92
2024-04-14T04:26:09.191Z,78.93
2024-04-14T04:27:09.228Z,80.56
2024-04-14T04:28:09.255Z,79.31
2024-04-14T04:29:09.195Z,78.86
2024-04-14T04:30:09.205Z,78.77
2024-04-14T04:31:09.190Z,77.80
2024-04-14T04:32:09.219Z,78.31
2024-04-14T04:33:09.270Z,78.01
2024-04-14T04:34:09.321Z,78.62
2024-04-14T04:35:09.367Z,80.27
2024-04-14T04:36:09.488Z,80.11
2024-04-14T04:37:09.470Z,79.87
2024-04-14T04:38:09.563Z,83.74
2024-04-14T04:39:09.629Z,85.26
2024-04-14T04:40:09.749Z,83.79
2024-04-14T04:41:09.740Z,83.23
2024-04-14T04:42:09.787Z,84.61
2024-04-14T04:43:09.864Z,81.75
2024-04-14T04:44:09.979Z,86.95
2024-04-14T04:45:09.981Z,83.24
2024-04-14T04:46:10.084Z,84.83
2024-04-14T04:47:10.100Z,83.27
2024-04-14T04:48:10.209Z,84.28
2024-04-14T04:49:10.341Z,83.34
2024-04-14T04:50:10.291Z,83.70
2024-04-14T04:51:10.364Z,80.25
2024-04-14T04:52:10.398Z,78.28
2024-04-14T04:53:10.483Z,79.04
2024-04-14T04:54:17.862Z,50.00
2024-04-14T04:55:17.795Z,50.00
2024-04-14T04:56:17.887Z,50.00
2024-04-14T04:57:17.807Z,50.00
2024-04-14T04:58:17.831Z,50.00
2024-04-14T04:59:17.831Z,51.44
2024-04-14T05:00:17.838Z,51.50
2024-04-14T05:01:17.947Z,50.00
2024-04-14T05:02:17.833Z,53.24
2024-04-14T05:03:17.856Z,52.80
2024-04-14T05:04:17.877Z,53.58
2024-04-14T05:05:17.902Z,54.89
2024-04-14T05:06:17.832Z,55.81
2024-04-14T05:07:17.817Z,56.33
2024-04-14T05:08:17.818Z,56.31
2024-04-14T05:09:17.838Z,54.44
2024-04-14T05:10:17.844Z,57.11
2024-04-14T05:11:17.940Z,54.35
2024-04-14T05:12:17.839Z,58.31
2024-04-14T05:13:17.852Z,53.29
2024-04-14T05:14:17.838Z,54.97
2024-04-14T05:15:17.827Z,57.00
2024-04-14T05:16:17.849Z,55.07
2024-04-14T05:17:17.843Z,51.32
2024-04-14T05:18:17.993Z,55.87
2024-04-14T05:19:17.936Z,52.77
2024-04-14T05:20:17.867Z,53.39
2024-04-14T05:21:17.848Z,52.30
2024-04-14T05:22:17.912Z,51.77
2024-04-14T05:23:17.896Z,52.92
2024-04-14T05:24:17.903Z,50.76
2024-04-14T05:25:17.936Z,53.65
2024-04-14T05:26:17.900Z,52.39
2024-04-14T05:27:17.926Z,52.15
2024-04-14T05:28:17.892Z,54.14
2024-04-14T05:29:17.940Z,51.12
2024-04-14T05:30:17.990Z,51.08
2024-04-14T05:31:17.915Z,52.44
2024-04-14T05:32:17.973Z,51.54
2024-04-14T05:33:18.068Z,52.73
2024-04-14T05:34:17.916Z,52.64
2024-04-14T05:35:17.899Z,50.75
2024-04-14T05:36:17.907Z,54.73
2024-04-14T05:37:17.911Z,50.66
2024-04-14T05:38:17.887Z,51.76
2024-04-14T05:39:17.928Z,56.26
2024-04-14T05:40:17.916Z,53.92
2024-04-14T05:41:17.906Z,53.57
2024-04-14T05:42:17.954Z,52.72
2024-04-14T05:43:17.924Z,51.17
2024-04-14T05:44:17.944Z,50.46
2024-04-14T05:45:17.921Z,52.06
2024-04-14T05:46:17.898Z,54.37
2024-04-14T05:47:17.956Z,50.00
2024-04-14T05:48:18.159Z,50.45
2024-04-14T05:49:19.817Z,51.70
2024-04-14T05:50:18.169Z,52.78
2024-04-14T05:51:18.129Z,52.32
2024-04-14T05:52:18.147Z,54.13
2024-04-14T05:53:18.204Z,50.74
2024-04-14T05:54:18.226Z,50.76
2024-04-14T05:55:18.256Z,53.42
2024-04-14T05:56:18.279Z,52.32
2024-04-14T05:57:18.282Z,49.54
2024-04-14T05:58:18.319Z,52.23
2024-04-14T05:59:18.371Z,51.62
2024-04-14T06:00:18.381Z,51.96
2024-04-14T06:01:18.449Z,53.76
2024-04-14T06:02:18.496Z,53.32
2024-04-14T06:03:18.553Z,53.21
2024-04-14T06:04:18.729Z,50.79
2024-04-14T06:05:18.674Z,54.23
2024-04-14T06:06:18.781Z,52.75
2024-04-14T06:07:18.806Z,50.57
2024-04-14T06:08:18.884Z,53.30
2024-04-14T06:09:18.973Z,52.85
2024-04-14T06:10:19.023Z,54.88
2024-04-14T06:11:19.140Z,52.00
2024-04-14T06:12:19.125Z,51.15
2024-04-14T06:13:19.195Z,53.23
2024-04-14T06:14:19.264Z,51.87
2024-04-14T06:15:19.310Z,50.75
2024-04-14T06:16:19.382Z,55.29
2024-04-14T06:17:19.414Z,51.15
2024-04-14T06:18:19.499Z,51.89
2024-04-14T06:19:19.566Z,53.14
2024-04-14T06:20:19.608Z,52.88
2024-04-14T06:21:19.668Z,52.48
2024-04-14T06:22:19.759Z,53.84
2024-04-14T06:23:21.669Z,50.81
2024-04-14T06:24:19.818Z,55.92
2024-04-14T06:25:19.885Z,52.52
2024-04-14T06:26:19.882Z,54.23
2024-04-14T06:27:19.904Z,50.00
2024-04-14T06:28:19.903Z,52.97
2024-04-14T06:29:19.942Z,52.86
2024-04-14T06:30:19.954Z,51.26
2024-04-14T06:31:19.987Z,52.38
2024-04-14T06:32:20.008Z,51.45
2024-04-14T06:33:20.104Z,52.99
2024-04-14T06:34:20.181Z,52.84
2024-04-14T06:35:20.162Z,52.33
2024-04-14T06:36:20.266Z,52.59
2024-04-14T06:37:20.299Z,53.74
2024-04-14T06:38:20.339Z,52.32
2024-04-14T06:39:20.410Z,51.43
2024-04-14T06:40:20.454Z,52.67
2024-04-14T06:41:20.550Z,50.24
2024-04-14T06:42:20.589Z,53.35
2024-04-14T06:43:20.647Z,50.93
2024-04-14T06:44:20.735Z,50.06
2024-04-14T06:45:20.792Z,51.08
2024-04-14T06:46:20.837Z,52.54
2024-04-14T06:47:21.081Z,50.22
2024-04-14T06:48:20.979Z,50.00
2024-04-14T06:49:21.077Z,55.72
2024-04-14T06:50:21.104Z,54.31
2024-04-14T06:51:21.184Z,55.86
2024-04-14T06:52:21.233Z,58.38
2024-04-14T06:53:21.338Z,56.53
2024-04-14T06:54:21.423Z,56.91
2024-04-14T06:55:21.458Z,57.91
2024-04-14T06:56:21.526Z,57.63
2024-04-14T06:57:21.586Z,56.57
2024-04-14T06:58:21.691Z,56.14
2024-04-14T06:59:21.790Z,56.09
2024-04-14T07:00:21.829Z,54.63
2024-04-14T07:01:21.996Z,50.88
2024-04-14T07:02:22.092Z,52.52
2024-04-14T07:03:22.076Z,50.89
2024-04-14T07:04:22.203Z,51.77
2024-04-14T07:05:22.209Z,52.39
2024-04-14T07:06:22.274Z,50.24
2024-04-14T07:07:22.358Z,53.52
2024-04-14T07:08:22.407Z,50.46
2024-04-14T07:09:22.488Z,52.26
2024-04-14T07:10:22.544Z,53.79
2024-04-14T07:11:22.697Z,50.90
2024-04-14T07:12:22.705Z,49.82
2024-04-14T07:13:22.799Z,50.14
2024-04-14T07:14:22.879Z,51.10
2024-04-14T07:15:23.816Z,53.28
2024-04-14T07:16:23.004Z,52.77
2024-04-14T07:17:23.092Z,53.47
2024-04-14T07:18:23.191Z,50.25
2024-04-14T07:19:23.122Z,55.16
2024-04-14T07:20:23.143Z,54.18
2024-04-14T07:21:23.220Z,54.31
2024-04-14T07:22:23.273Z,51.60
2024-04-14T07:23:23.301Z,53.10
2024-04-14T07:24:23.394Z,53.37
2024-04-14T07:25:23.518Z,50.00
2024-04-14T07:26:23.532Z,52.66
2024-04-14T07:27:23.647Z,53.64
2024-04-14T07:28:23.713Z,52.68
2024-04-14T07:29:23.803Z,51.52
2024-04-14T07:30:23.850Z,53.90
2024-04-14T07:31:25.578Z,53.15
2024-04-14T07:32:24.006Z,55.62
2024-04-14T07:33:24.075Z,56.03
2024-04-14T07:34:24.081Z,55.80
2024-04-14T07:35:24.137Z,55.84
2024-04-14T07:36:24.183Z,55.81
2024-04-14T07:37:24.270Z,52.78
2024-04-14T07:38:24.300Z,52.98
2024-04-14T07:39:24.386Z,54.71
2024-04-14T07:40:24.448Z,54.09
2024-04-14T07:41:24.575Z,55.18
2024-04-14T07:42:24.635Z,53.28
2024-04-14T07:43:24.734Z,52.19
2024-04-14T07:44:24.832Z,51.16
2024-04-14T07:45:24.951Z,51.75
2024-04-14T07:46:25.045Z,50.86
2024-04-14T07:47:25.169Z,51.57
2024-04-14T07:48:25.297Z,50.39
2024-04-14T07:49:25.378Z,51.21
2024-04-14T07:50:25.399Z,54.91
2024-04-14T07:51:25.505Z,56.81
2024-04-14T07:52:25.606Z,55.88
2024-04-14T07:53:25.707Z,56.69
2024-04-14T07:54:25.873Z,55.89
2024-04-14T07:55:25.915Z,55.50
2024-04-14T07:56:26.043Z,57.02
2024-04-14T07:57:26.138Z,56.26
2024-04-14T07:58:26.227Z,54.49
2024-04-14T07:59:26.375Z,55.60
2024-04-14T08:00:26.522Z,57.06
2024-04-14T08:01:26.648Z,57.29
2024-04-14T08:02:26.676Z,60.19
2024-04-14T08:03:26.956Z,60.29
2024-04-14T08:04:26.961Z,58.87
2024-04-14T08:05:27.143Z,59.00
2024-04-14T08:06:27.123Z,62.22
2024-04-14T08:07:27.185Z,58.71
2024-04-14T08:08:27.301Z,59.79
2024-04-14T08:09:27.522Z,61.19
2024-04-14T08:10:27.472Z,61.38
2024-04-14T08:11:27.625Z,62.81
2024-04-14T08:12:27.678Z,60.74
2024-04-14T08:13:27.794Z,62.44
2024-04-14T08:14:27.912Z,66.58
2024-04-14T08:15:28.024Z,64.20
2024-04-14T08:16:28.155Z,67.46
2024-04-14T08:17:28.202Z,65.02
2024-04-14T08:18:28.347Z,68.15
2024-04-14T08:19:28.426Z,71.40
2024-04-14T08:20:28.508Z,72.83
2024-04-14T08:21:28.663Z,73.52
2024-04-14T08:22:28.733Z,76.74
2024-04-14T08:23:28.846Z,75.24
2024-04-14T08:24:29.001Z,78.51
2024-04-14T08:25:29.057Z,76.04
2024-04-14T08:26:29.169Z,78.96
2024-04-14T08:27:29.241Z,79.50
2024-04-14T08:28:29.359Z,77.98
2024-04-14T08:29:29.492Z,78.94
2024-04-14T08:30:29.569Z,77.93
2024-04-14T08:31:29.743Z,80.66
2024-04-14T08:32:29.771Z,81.79
2024-04-14T08:33:29.946Z,80.50
2024-04-14T08:34:30.082Z,83.12
2024-04-14T08:35:30.105Z,83.06
2024-04-14T08:36:30.242Z,82.78
2024-04-14T08:37:30.324Z,86.56
2024-04-14T08:38:30.435Z,85.83
2024-04-14T08:39:30.544Z,89.66
2024-04-14T08:40:30.618Z,90.35
2024-04-14T08:41:30.725Z,90.99
2024-04-14T08:42:30.866Z,89.97
2024-04-14T08:43:30.967Z,86.54
2024-04-14T08:44:31.026Z,88.89
2024-04-14T08:45:31.192Z,86.38
2024-04-14T08:46:31.317Z,91.66
2024-04-14T08:47:31.415Z,89.24
2024-04-14T08:48:31.514Z,87.42
2024-04-14T08:49:31.595Z,88.70
2024-04-14T08:50:31.682Z,90.36
2024-04-14T08:51:31.811Z,92.44
2024-04-14T08:52:31.897Z,95.06
2024-04-14T08:53:32.011Z,97.67
2024-04-14T08:54:32.155Z,98.92
2024-04-14T08:55:32.201Z,104.98
2024-04-14T08:56:32.320Z,106.34
2024-04-14T08:57:32.449Z,107.62
2024-04-14T08:58:32.519Z,102.21
2024-04-14T08:59:32.624Z,100.31
2024-04-14T09:00:32.793Z,94.44
2024-04-14T09:01:32.929Z,96.34
2024-04-14T09:02:32.987Z,99.99
2024-04-14T09:03:33.058Z,95.59
2024-04-14T09:04:33.158Z,95.22
2024-04-14T09:05:36.113Z,100.75
2024-04-14T09:06:33.271Z,102.14
2024-04-14T09:07:33.232Z,104.64
2024-04-14T09:08:33.196Z,97.97
2024-04-14T09:09:33.258Z,101.94
2024-04-14T09:10:33.211Z,104.79
2024-04-14T09:11:33.218Z,104.84
2024-04-14T09:12:33.263Z,100.26
2024-04-14T09:13:33.239Z,99.72
2024-04-14T09:14:33.242Z,99.18
2024-04-14T09:15:33.274Z,93.20
2024-04-14T09:16:33.324Z,91.33
2024-04-14T09:17:33.242Z,93.01
2024-04-14T09:18:33.273Z,88.87
2024-04-14T09:19:34.037Z,83.34
2024-04-14T09:20:33.283Z,83.33
2024-04-14T09:21:33.277Z,82.09
2024-04-14T09:22:33.240Z,80.39
2024-04-14T09:23:33.262Z,78.24
2024-04-14T09:24:33.283Z,75.57
2024-04-14T09:25:33.241Z,74.72
2024-04-14T09:26:33.258Z,72.78
2024-04-14T09:27:33.293Z,70.53
2024-04-14T09:28:33.232Z,68.24
2024-04-14T09:29:33.306Z,65.15
2024-04-14T09:30:33.271Z,65.66
2024-04-14T09:31:33.265Z,65.60
2024-04-14T09:32:33.378Z,66.60
2024-04-14T09:33:33.359Z,69.08
2024-04-14T09:34:33.274Z,68.95
2024-04-14T09:35:33.272Z,68.65
2024-04-14T09:36:33.374Z,70.44
2024-04-14T09:37:33.377Z,71.31
2024-04-14T09:38:33.487Z,71.18
2024-04-14T09:39:33.592Z,70.57
2024-04-14T09:40:33.692Z,73.49
2024-04-14T09:41:33.726Z,72.25
2024-04-14T09:42:33.826Z,72.18
2024-04-14T09:43:33.917Z,72.21
2024-04-14T09:44:34.014Z,70.46
2024-04-14T09:45:34.152Z,69.80
2024-04-14T09:46:34.145Z,68.66
2024-04-14T09:47:34.326Z,70.78
2024-04-14T09:48:34.320Z,68.63
2024-04-14T09:49:34.386Z,71.17
2024-04-14T09:50:34.467Z,72.11
2024-04-14T09:51:34.581Z,72.34
2024-04-14T09:52:34.598Z,73.09
2024-04-14T09:53:34.692Z,72.06
2024-04-14T09:54:34.807Z,73.66
2024-04-14T09:55:37.452Z,73.82
2024-04-14T09:56:34.868Z,73.88
2024-04-14T09:57:34.878Z,73.90
2024-04-14T09:58:34.873Z,73.97
2024-04-14T09:59:34.851Z,74.47
2024-04-14T10:00:34.875Z,73.73
2024-04-14T10:01:34.924Z,73.89
2024-04-14T10:02:34.927Z,72.08
2024-04-14T10:03:34.960Z,74.01
2024-04-14T10:04:34.891Z,74.12
2024-04-14T10:05:34.867Z,73.62
2024-04-14T10:06:34.904Z,72.65
2024-04-14T10:07:34.885Z,73.22
2024-04-14T10:08:34.864Z,70.80
2024-04-14T10:09:34.884Z,73.96
2024-04-14T10:10:34.889Z,70.62
2024-04-14T10:11:34.846Z,73.41
2024-04-14T10:12:34.924Z,70.11
2024-04-14T10:13:34.870Z,68.45
2024-04-14T10:14:34.906Z,66.90
2024-04-14T10:15:34.987Z,68.97
2024-04-14T10:16:34.903Z,67.99
2024-04-14T10:17:34.972Z,67.71
2024-04-14T10:18:34.882Z,68.31
2024-04-14T10:19:34.917Z,70.06
2024-04-14T10:20:34.899Z,68.28
2024-04-14T10:21:34.956Z,68.52
2024-04-14T10:22:34.913Z,68.55
2024-04-14T10:23:34.914Z,68.00
2024-04-14T10:24:34.962Z,66.87
2024-04-14T10:25:34.990Z,67.82
2024-04-14T10:26:35.092Z,68.75
2024-04-14T10:27:35.164Z,69.35
2024-04-14T10:28:35.205Z,66.70
2024-04-14T10:29:35.303Z,69.32
2024-04-14T10:30:35.275Z,68.34
2024-04-14T10:31:35.290Z,67.62
2024-04-14T10:32:35.341Z,66.02
2024-04-14T10:33:35.624Z,65.70
2024-04-14T10:34:35.577Z,67.79
2024-04-14T10:35:35.480Z,67.33
2024-04-14T10:36:35.580Z,65.76
2024-04-14T10:37:35.604Z,67.08
2024-04-14T10:38:35.770Z,65.93
2024-04-14T10:39:35.719Z,65.00
2024-04-14T10:40:35.724Z,66.05
2024-04-14T10:41:35.786Z,67.03
2024-04-14T10:42:35.871Z,65.64
2024-04-14T10:43:35.912Z,65.79
2024-04-14T10:44:36.002Z,65.56
2024-04-14T10:45:36.091Z,64.85
2024-04-14T10:46:36.152Z,65.76
2024-04-14T10:47:36.237Z,64.47
2024-04-14T10:48:36.399Z,64.20
2024-04-14T10:49:36.399Z,63.72
2024-04-14T10:50:36.450Z,62.29
2024-04-14T10:51:36.534Z,61.84
2024-04-14T10:52:36.591Z,62.53
2024-04-14T10:53:36.684Z,60.51
2024-04-14T10:54:36.760Z,61.47
2024-04-14T10:55:36.819Z,59.74
2024-04-14T10:56:36.920Z,60.33
2024-04-14T10:57:37.007Z,60.41
2024-04-14T10:58:37.085Z,59.56
2024-04-14T10:59:37.176Z,59.38
2024-04-14T11:00:37.244Z,57.29
2024-04-14T11:01:37.358Z,57.20
2024-04-14T11:02:37.407Z,56.56
2024-04-14T11:03:37.544Z,59.39
2024-04-14T11:04:37.756Z,58.01
2024-04-14T11:05:37.603Z,58.46
2024-04-14T11:06:37.715Z,58.40
2024-04-14T11:07:37.763Z,57.21
2024-04-14T11:08:37.838Z,57.82
2024-04-14T11:09:37.984Z,57.63
2024-04-14T11:10:38.080Z,59.07
2024-04-14T11:11:38.097Z,57.87
2024-04-14T11:12:38.198Z,59.67
2024-04-14T11:13:38.230Z,57.04
2024-04-14T11:14:38.322Z,59.24
2024-04-14T11:15:38.431Z,57.07
2024-04-14T11:16:38.603Z,58.18
2024-04-14T11:17:38.580Z,57.36
2024-04-14T11:18:38.639Z,58.89
2024-04-14T11:19:38.760Z,59.05
2024-04-14T11:20:38.757Z,59.32
2024-04-14T11:21:38.980Z,59.03
2024-04-14T11:22:38.940Z,56.95
2024-04-14T11:23:38.996Z,57.79
2024-04-14T11:24:39.075Z,56.74
2024-04-14T11:25:39.153Z,59.07
2024-04-14T11:26:39.234Z,58.65
2024-04-14T11:27:39.315Z,56.82
2024-04-14T11:28:39.397Z,56.17
2024-04-14T11:29:39.458Z,55.46
2024-04-14T11:30:39.575Z,54.35
2024-04-14T11:31:39.612Z,54.16
2024-04-14T11:32:39.756Z,52.10
2024-04-14T11:33:39.829Z,53.17
2024-04-14T11:34:39.957Z,53.30
2024-04-14T11:35:39.968Z,53.46
2024-04-14T11:36:40.044Z,50.77
2024-04-14T11:37:40.099Z,52.74
2024-04-14T11:38:40.213Z,52.55
2024-04-14T11:39:40.277Z,51.79
2024-04-14T11:40:40.346Z,51.43
2024-04-14T11:41:40.400Z,52.14
2024-04-14T11:42:40.552Z,51.75
2024-04-14T11:43:40.576Z,50.12
2024-04-14T11:44:40.686Z,53.98
2024-04-14T11:45:40.755Z,52.66
2024-04-14T11:46:40.829Z,52.40
2024-04-14T11:47:41.053Z,51.15
2024-04-14T11:48:41.042Z,54.38
2024-04-14T11:49:41.086Z,51.57
2024-04-14T11:50:41.134Z,53.25
2024-04-14T11:51:41.206Z,51.75
2024-04-14T11:52:41.315Z,53.31
2024-04-14T11:53:41.358Z,51.88
2024-04-14T11:54:41.492Z,50.02
2024-04-14T11:55:41.553Z,52.46
2024-04-14T11:56:41.619Z,51.48
2024-04-14T11:57:41.748Z,52.26
2024-04-14T11:58:41.771Z,53.75
2024-04-14T11:59:41.867Z,51.71
2024-04-14T12:00:42.034Z,52.60
2024-04-14T12:01:42.040Z,53.80
2024-04-14T12:02:42.102Z,50.54
2024-04-14T12:03:42.137Z,52.95
2024-04-14T12:04:42.253Z,52.53
2024-04-14T12:05:42.325Z,50.26
2024-04-14T12:06:42.450Z,52.18
2024-04-14T12:07:42.513Z,52.36
2024-04-14T12:08:42.558Z,51.42
2024-04-14T12:09:42.636Z,54.13
2024-04-14T12:10:42.780Z,53.45
2024-04-14T12:11:42.751Z,50.70
2024-04-14T12:12:42.845Z,51.59
2024-04-14T12:13:42.886Z,52.97
2024-04-14T12:14:43.658Z,50.34
2024-04-14T12:15:43.068Z,54.06
2024-04-14T12:16:43.162Z,51.00
2024-04-14T12:17:43.287Z,51.49
2024-04-14T12:18:43.350Z,51.48
2024-04-14T12:19:43.370Z,49.97
2024-04-14T12:20:43.469Z,50.85
2024-04-14T12:21:43.578Z,52.36
2024-04-14T12:22:43.593Z,53.73
2024-04-14T12:23:43.679Z,51.85
2024-04-14T12:24:43.820Z,53.28
2024-04-14T12:25:43.876Z,53.71
2024-04-14T12:26:43.913Z,52.30
2024-04-14T12:27:44.065Z,52.11
2024-04-14T12:28:44.132Z,53.16
2024-04-14T12:29:44.230Z,52.74
2024-04-14T12:30:51.304Z,52.90
2024-04-14T12:31:45.270Z,52.95
2024-04-14T12:32:44.361Z,52.95
2024-04-14T12:33:44.349Z,51.56
2024-04-14T12:34:44.263Z,50.63
2024-04-14T12:35:44.269Z,52.64
2024-04-14T12:36:44.371Z,51.11
2024-04-14T12:37:44.298Z,50.75
2024-04-14T12:38:44.260Z,52.92
2024-04-14T12:39:44.332Z,52.96
2024-04-14T12:40:44.286Z,53.16
2024-04-14T12:41:44.274Z,51.55
2024-04-14T12:42:44.299Z,50.97
2024-04-14T12:43:44.316Z,52.29
2024-04-14T12:44:44.293Z,51.02
2024-04-14T12:45:44.352Z,52.98
2024-04-14T12:46:44.371Z,53.12
2024-04-14T12:47:44.332Z,54.01